Delicias, Spain
Current Conditions -  °F | °C
As of 4:30 AM on Saturday 20 Dec 2014 (Local Time) from LEZG Reporting Station
Clear Clear  
Wind Chill: 42°   Ceiling: Unl
Heat Index: 48°   Visibility: 6mi
Dew Point: 39°   Wind: 18mph
Humidity: 71%   Direction: 280°W
Pressure: 30.45"   Gusts: NA
Location:  41.65°N, 0.91°W
Report Text: LEZG 200330Z 28016KT CAVOK 09/04 Q1031
Loading
Personal Weather Stations






























Interactive Weather Map New forecast layout! Learn more

10-Day Weather Forecast

Advertisements
Track Severe Weather on mobile